sensor_id;sensor_type;location;lat;lon;timestamp;pressure;altitude;pressure_sealevel;temperature;humidity
60244;BME280;46106;51.468;5.814;2023-12-20T00:00:00;101295.34;;;6.90;100.00
60244;BME280;46106;51.468;5.814;2023-12-20T00:02:25;101299.94;;;6.89;100.00
60244;BME280;46106;51.468;5.814;2023-12-20T00:04:51;101316.19;;;6.91;100.00
60244;BME280;46106;51.468;5.814;2023-12-20T00:07:16;101313.09;;;6.81;100.00
60244;BME280;46106;51.468;5.814;2023-12-20T00:09:42;101319.03;;;6.72;100.00
60244;BME280;46106;51.468;5.814;2023-12-20T00:12:09;101331.00;;;6.69;100.00
60244;BME280;46106;51.468;5.814;2023-12-20T00:14:35;101337.31;;;6.70;100.00
60244;BME280;46106;51.468;5.814;2023-12-20T00:17:00;101331.06;;;6.68;100.00
60244;BME280;46106;51.468;5.814;2023-12-20T00:19:29;101330.53;;;6.61;100.00
60244;BME280;46106;51.468;5.814;2023-12-20T00:21:54;101338.31;;;6.51;100.00
60244;BME280;46106;51.468;5.814;2023-12-20T00:24:20;101329.63;;;6.44;100.00
60244;BME280;46106;51.468;5.814;2023-12-20T00:26:45;101328.00;;;6.40;100.00
60244;BME280;46106;51.468;5.814;2023-12-20T00:29:12;101333.78;;;6.34;100.00
60244;BME280;46106;51.468;5.814;2023-12-20T00:31:37;101323.50;;;6.23;100.00
60244;BME280;46106;51.468;5.814;2023-12-20T00:34:02;101330.81;;;6.21;100.00
60244;BME280;46106;51.468;5.814;2023-12-20T00:36:28;101324.06;;;6.13;100.00
60244;BME280;46106;51.468;5.814;2023-12-20T00:38:53;101337.25;;;6.20;100.00
60244;BME280;46106;51.468;5.814;2023-12-20T00:41:18;101333.97;;;6.14;100.00
60244;BME280;46106;51.468;5.814;2023-12-20T00:43:44;101330.19;;;6.16;100.00
60244;BME280;46106;51.468;5.814;2023-12-20T00:46:10;101326.22;;;6.06;100.00
60244;BME280;46106;51.468;5.814;2023-12-20T00:48:35;101321.84;;;6.03;100.00
60244;BME280;46106;51.468;5.814;2023-12-20T00:51:01;101314.63;;;6.02;100.00
60244;BME280;46106;51.468;5.814;2023-12-20T00:53:27;101321.25;;;5.97;100.00
60244;BME280;46106;51.468;5.814;2023-12-20T00:55:54;101321.31;;;5.95;100.00
60244;BME280;46106;51.468;5.814;2023-12-20T00:58:20;101314.50;;;5.86;100.00
60244;BME280;46106;51.468;5.814;2023-12-20T01:00:46;101317.53;;;5.80;100.00
60244;BME280;46106;51.468;5.814;2023-12-20T01:03:13;101313.09;;;5.79;100.00
60244;BME280;46106;51.468;5.814;2023-12-20T01:05:41;101316.91;;;5.75;100.00
60244;BME280;46106;51.468;5.814;2023-12-20T01:08:06;101322.41;;;5.74;100.00
60244;BME280;46106;51.468;5.814;2023-12-20T01:10:32;101319.22;;;5.65;100.00
60244;BME280;46106;51.468;5.814;2023-12-20T01:12:57;101328.13;;;5.69;100.00
60244;BME280;46106;51.468;5.814;2023-12-20T01:15:23;101322.09;;;5.62;100.00
60244;BME280;46106;51.468;5.814;2023-12-20T01:17:49;101316.09;;;5.56;100.00
60244;BME280;46106;51.468;5.814;2023-12-20T01:20:16;101319.72;;;5.56;100.00
60244;BME280;46106;51.468;5.814;2023-12-20T01:22:43;101319.06;;;5.51;100.00
60244;BME280;46106;51.468;5.814;2023-12-20T01:25:11;101334.75;;;5.44;100.00
60244;BME280;46106;51.468;5.814;2023-12-20T01:27:38;101327.66;;;5.42;100.00
60244;BME280;46106;51.468;5.814;2023-12-20T01:30:05;101336.44;;;5.47;100.00
60244;BME280;46106;51.468;5.814;2023-12-20T01:32:31;101335.59;;;5.46;100.00
60244;BME280;46106;51.468;5.814;2023-12-20T01:34:58;101331.25;;;5.42;100.00
60244;BME280;46106;51.468;5.814;2023-12-20T01:37:26;101327.81;;;5.39;100.00
60244;BME280;46106;51.468;5.814;2023-12-20T01:39:54;101320.53;;;5.39;100.00
60244;BME280;46106;51.468;5.814;2023-12-20T01:42:19;101329.81;;;5.35;100.00
60244;BME280;46106;51.468;5.814;2023-12-20T01:44:45;101325.53;;;5.29;100.00
60244;BME280;46106;51.468;5.814;2023-12-20T01:47:11;101331.94;;;5.28;100.00
60244;BME280;46106;51.468;5.814;2023-12-20T01:49:37;101339.28;;;5.26;100.00
60244;BME280;46106;51.468;5.814;2023-12-20T01:52:03;101344.03;;;5.21;100.00
60244;BME280;46106;51.468;5.814;2023-12-20T01:54:29;101331.38;;;5.22;100.00
60244;BME280;46106;51.468;5.814;2023-12-20T01:56:54;101330.88;;;5.13;100.00
60244;BME280;46106;51.468;5.814;2023-12-20T01:59:20;101337.75;;;5.21;100.00
60244;BME280;46106;51.468;5.814;2023-12-20T02:01:47;101328.88;;;5.17;100.00
60244;BME280;46106;51.468;5.814;2023-12-20T02:04:12;101330.78;;;5.15;100.00
60244;BME280;46106;51.468;5.814;2023-12-20T02:06:40;101329.88;;;5.14;100.00
60244;BME280;46106;51.468;5.814;2023-12-20T02:09:07;101328.06;;;5.15;100.00
60244;BME280;46106;51.468;5.814;2023-12-20T02:11:33;101336.94;;;5.19;100.00
60244;BME280;46106;51.468;5.814;2023-12-20T02:13:58;101327.75;;;5.21;100.00
60244;BME280;46106;51.468;5.814;2023-12-20T02:16:24;101328.72;;;5.20;100.00
60244;BME280;46106;51.468;5.814;2023-12-20T02:18:49;101332.38;;;5.19;100.00
60244;BME280;46106;51.468;5.814;2023-12-20T02:21:18;101331.53;;;5.19;100.00
60244;BME280;46106;51.468;5.814;2023-12-20T02:23:43;101341.19;;;5.24;100.00
60244;BME280;46106;51.468;5.814;2023-12-20T02:26:08;101339.19;;;5.28;100.00
60244;BME280;46106;51.468;5.814;2023-12-20T02:28:34;101323.38;;;5.19;100.00
60244;BME280;46106;51.468;5.814;2023-12-20T02:31:00;101332.31;;;5.21;100.00
60244;BME280;46106;51.468;5.814;2023-12-20T02:33:25;101333.09;;;5.23;100.00
60244;BME280;46106;51.468;5.814;2023-12-20T02:35:51;101328.00;;;5.17;100.00
60244;BME280;46106;51.468;5.814;2023-12-20T02:38:19;101325.88;;;5.23;100.00
60244;BME280;46106;51.468;5.814;2023-12-20T02:40:45;101332.09;;;5.25;100.00
60244;BME280;46106;51.468;5.814;2023-12-20T02:43:11;101325.94;;;5.22;100.00
60244;BME280;46106;51.468;5.814;2023-12-20T02:45:38;101323.16;;;5.23;100.00
60244;BME280;46106;51.468;5.814;2023-12-20T02:48:04;101339.19;;;5.28;100.00
60244;BME280;46106;51.468;5.814;2023-12-20T02:50:29;101340.25;;;5.25;100.00
60244;BME280;46106;51.468;5.814;2023-12-20T02:52:55;101326.66;;;5.25;100.00
60244;BME280;46106;51.468;5.814;2023-12-20T02:55:20;101328.44;;;5.26;100.00
60244;BME280;46106;51.468;5.814;2023-12-20T02:57:46;101332.97;;;5.26;100.00
60244;BME280;46106;51.468;5.814;2023-12-20T03:00:13;101342.94;;;5.25;100.00
60244;BME280;46106;51.468;5.814;2023-12-20T03:02:40;101339.44;;;5.23;100.00
60244;BME280;46106;51.468;5.814;2023-12-20T03:05:06;101344.47;;;5.31;100.00
60244;BME280;46106;51.468;5.814;2023-12-20T03:07:31;101337.94;;;5.35;100.00
60244;BME280;46106;51.468;5.814;2023-12-20T03:09:56;101328.31;;;5.28;100.00
60244;BME280;46106;51.468;5.814;2023-12-20T03:12:22;101332.09;;;5.25;100.00
60244;BME280;46106;51.468;5.814;2023-12-20T03:14:48;101330.41;;;5.23;100.00
60244;BME280;46106;51.468;5.814;2023-12-20T03:17:14;101313.81;;;5.29;100.00
60244;BME280;46106;51.468;5.814;2023-12-20T03:19:40;101322.75;;;5.31;100.00
60244;BME280;46106;51.468;5.814;2023-12-20T03:22:05;101322.03;;;5.27;100.00
60244;BME280;46106;51.468;5.814;2023-12-20T03:24:31;101310.16;;;5.30;100.00
60244;BME280;46106;51.468;5.814;2023-12-20T03:26:56;101306.47;;;5.31;100.00
60244;BME280;46106;51.468;5.814;2023-12-20T03:29:23;101312.28;;;5.23;100.00
60244;BME280;46106;51.468;5.814;2023-12-20T03:31:48;101312.94;;;5.28;100.00
60244;BME280;46106;51.468;5.814;2023-12-20T03:34:14;101311.03;;;5.30;100.00
60244;BME280;46106;51.468;5.814;2023-12-20T03:36:40;101311.03;;;5.30;100.00
60244;BME280;46106;51.468;5.814;2023-12-20T03:39:05;101314.47;;;5.34;100.00
60244;BME280;46106;51.468;5.814;2023-12-20T03:41:30;101312.38;;;5.39;100.00
60244;BME280;46106;51.468;5.814;2023-12-20T03:43:56;101313.22;;;5.41;100.00
60244;BME280;46106;51.468;5.814;2023-12-20T03:46:22;101300.66;;;5.39;100.00
60244;BME280;46106;51.468;5.814;2023-12-20T03:48:48;101304.09;;;5.42;100.00
60244;BME280;46106;51.468;5.814;2023-12-20T03:51:13;101303.66;;;5.32;100.00
60244;BME280;46106;51.468;5.814;2023-12-20T03:53:39;101299.44;;;5.27;100.00
60244;BME280;46106;51.468;5.814;2023-12-20T03:56:06;101298.66;;;5.25;100.00
60244;BME280;46106;51.468;5.814;2023-12-20T03:58:31;101299.66;;;5.22;100.00
60244;BME280;46106;51.468;5.814;2023-12-20T04:00:56;101299.00;;;5.17;100.00
60244;BME280;46106;51.468;5.814;2023-12-20T04:03:23;101306.59;;;5.10;100.00
60244;BME280;46106;51.468;5.814;2023-12-20T04:05:49;101304.81;;;5.09;100.00
60244;BME280;46106;51.468;5.814;2023-12-20T04:08:14;101301.38;;;5.06;100.00
60244;BME280;46106;51.468;5.814;2023-12-20T04:10:40;101297.66;;;5.08;100.00
60244;BME280;46106;51.468;5.814;2023-12-20T04:13:06;101311.78;;;5.15;100.00
60244;BME280;46106;51.468;5.814;2023-12-20T04:15:32;101301.66;;;5.19;100.00
60244;BME280;46106;51.468;5.814;2023-12-20T04:17:57;101303.41;;;5.20;100.00
60244;BME280;46106;51.468;5.814;2023-12-20T04:20:23;101316.03;;;5.21;100.00
60244;BME280;46106;51.468;5.814;2023-12-20T04:22:48;101308.81;;;5.20;100.00
60244;BME280;46106;51.468;5.814;2023-12-20T04:25:14;101305.47;;;5.14;100.00
60244;BME280;46106;51.468;5.814;2023-12-20T04:27:41;101321.09;;;5.28;100.00
60244;BME280;46106;51.468;5.814;2023-12-20T04:30:08;101322.19;;;5.24;100.00
60244;BME280;46106;51.468;5.814;2023-12-20T04:32:34;101320.28;;;5.26;100.00
60244;BME280;46106;51.468;5.814;2023-12-20T04:35:00;101314.94;;;5.25;100.00
60244;BME280;46106;51.468;5.814;2023-12-20T04:37:26;101309.31;;;5.28;100.00
60244;BME280;46106;51.468;5.814;2023-12-20T04:39:52;101315.50;;;5.31;100.00
60244;BME280;46106;51.468;5.814;2023-12-20T04:42:18;101310.88;;;5.33;100.00
60244;BME280;46106;51.468;5.814;2023-12-20T04:44:45;101304.56;;;5.33;100.00
60244;BME280;46106;51.468;5.814;2023-12-20T04:47:11;101304.38;;;5.36;100.00
60244;BME280;46106;51.468;5.814;2023-12-20T04:49:36;101305.00;;;5.43;100.00
60244;BME280;46106;51.468;5.814;2023-12-20T04:52:01;101311.13;;;5.46;100.00
60244;BME280;46106;51.468;5.814;2023-12-20T04:54:27;101303.78;;;5.48;100.00
60244;BME280;46106;51.468;5.814;2023-12-20T04:56:53;101305.47;;;5.51;100.00
60244;BME280;46106;51.468;5.814;2023-12-20T04:59:19;101309.78;;;5.55;100.00
60244;BME280;46106;51.468;5.814;2023-12-20T05:01:44;101305.97;;;5.59;100.00
60244;BME280;46106;51.468;5.814;2023-12-20T05:04:10;101298.75;;;5.58;100.00
60244;BME280;46106;51.468;5.814;2023-12-20T05:06:35;101308.59;;;5.61;100.00
60244;BME280;46106;51.468;5.814;2023-12-20T05:09:01;101300.34;;;5.62;100.00
60244;BME280;46106;51.468;5.814;2023-12-20T05:11:27;101294.91;;;5.62;100.00
60244;BME280;46106;51.468;5.814;2023-12-20T05:13:53;101305.47;;;5.68;100.00
60244;BME280;46106;51.468;5.814;2023-12-20T05:16:18;101305.31;;;5.71;100.00
60244;BME280;46106;51.468;5.814;2023-12-20T05:18:45;101295.50;;;5.69;100.00
60244;BME280;46106;51.468;5.814;2023-12-20T05:21:11;101285.50;;;5.69;100.00
60244;BME280;46106;51.468;5.814;2023-12-20T05:23:36;101285.44;;;5.71;100.00
60244;BME280;46106;51.468;5.814;2023-12-20T05:26:01;101286.94;;;5.77;100.00
60244;BME280;46106;51.468;5.814;2023-12-20T05:28:28;101281.81;;;5.70;100.00
60244;BME280;46106;51.468;5.814;2023-12-20T05:30:54;101287.84;;;5.77;100.00
60244;BME280;46106;51.468;5.814;2023-12-20T05:33:19;101276.16;;;5.75;100.00
60244;BME280;46106;51.468;5.814;2023-12-20T05:35:45;101283.84;;;5.84;100.00
60244;BME280;46106;51.468;5.814;2023-12-20T05:38:11;101281.19;;;5.83;100.00
60244;BME280;46106;51.468;5.814;2023-12-20T05:40:37;101277.59;;;5.82;100.00
60244;BME280;46106;51.468;5.814;2023-12-20T05:43:02;101288.31;;;5.85;100.00
60244;BME280;46106;51.468;5.814;2023-12-20T05:45:29;101281.19;;;5.83;100.00
60244;BME280;46106;51.468;5.814;2023-12-20T05:47:54;101287.25;;;5.88;100.00
60244;BME280;46106;51.468;5.814;2023-12-20T05:50:20;101291.19;;;5.82;100.00
60244;BME280;46106;51.468;5.814;2023-12-20T05:52:46;101281.97;;;5.85;100.00
60244;BME280;46106;51.468;5.814;2023-12-20T05:55:11;101288.22;;;5.87;100.00
60244;BME280;46106;51.468;5.814;2023-12-20T05:57:37;101287.25;;;5.88;100.00
60244;BME280;46106;51.468;5.814;2023-12-20T06:00:04;101289.97;;;5.88;100.00
60244;BME280;46106;51.468;5.814;2023-12-20T06:02:30;101290.78;;;5.90;100.00
60244;BME280;46106;51.468;5.814;2023-12-20T06:04:57;101298.91;;;5.90;100.00
60244;BME280;46106;51.468;5.814;2023-12-20T06:07:23;101299.81;;;5.91;100.00
60244;BME280;46106;51.468;5.814;2023-12-20T06:09:49;101298.63;;;5.96;100.00
60244;BME280;46106;51.468;5.814;2023-12-20T06:12:16;101294.16;;;5.95;100.00
60244;BME280;46106;51.468;5.814;2023-12-20T06:14:41;101305.84;;;5.97;100.00
60244;BME280;46106;51.468;5.814;2023-12-20T06:17:06;101307.59;;;5.98;100.00
60244;BME280;46106;51.468;5.814;2023-12-20T06:19:32;101311.56;;;5.91;100.00
60244;BME280;46106;51.468;5.814;2023-12-20T06:21:57;101307.06;;;5.90;100.00
60244;BME280;46106;51.468;5.814;2023-12-20T06:24:22;101306.28;;;5.88;100.00
60244;BME280;46106;51.468;5.814;2023-12-20T06:26:52;101304.88;;;5.98;100.00
60244;BME280;46106;51.468;5.814;2023-12-20T06:29:17;101311.41;;;5.94;100.00
60244;BME280;46106;51.468;5.814;2023-12-20T06:31:43;101321.31;;;5.95;100.00
60244;BME280;46106;51.468;5.814;2023-12-20T06:34:08;101329.47;;;5.95;100.00
60244;BME280;46106;51.468;5.814;2023-12-20T06:36:33;101324.91;;;5.96;100.00
60244;BME280;46106;51.468;5.814;2023-12-20T06:39:00;101318.78;;;5.92;100.00
60244;BME280;46106;51.468;5.814;2023-12-20T06:41:26;101317.94;;;5.90;100.00
60244;BME280;46106;51.468;5.814;2023-12-20T06:43:54;101314.44;;;5.88;100.00
60244;BME280;46106;51.468;5.814;2023-12-20T06:46:19;101315.31;;;5.88;100.00
60244;BME280;46106;51.468;5.814;2023-12-20T06:48:46;101316.22;;;5.89;100.00
60244;BME280;46106;51.468;5.814;2023-12-20T06:51:15;101305.72;;;5.81;100.00
60244;BME280;46106;51.468;5.814;2023-12-20T06:53:42;101308.69;;;5.77;100.00
60244;BME280;46106;51.468;5.814;2023-12-20T06:56:10;101308.13;;;5.70;100.00
60244;BME280;46106;51.468;5.814;2023-12-20T06:58:36;101315.63;;;5.65;100.00
60244;BME280;46106;51.468;5.814;2023-12-20T07:01:06;101307.56;;;5.63;100.00
60244;BME280;46106;51.468;5.814;2023-12-20T07:03:35;101301.97;;;5.66;100.00
60244;BME280;46106;51.468;5.814;2023-12-20T07:06:01;101301.09;;;5.66;100.00
60244;BME280;46106;51.468;5.814;2023-12-20T07:08:26;101304.59;;;5.68;100.00
60244;BME280;46106;51.468;5.814;2023-12-20T07:10:52;101309.19;;;5.67;100.00
60244;BME280;46106;51.468;5.814;2023-12-20T07:13:17;101316.41;;;5.67;100.00
60244;BME280;46106;51.468;5.814;2023-12-20T07:15:43;101304.75;;;5.65;100.00
60244;BME280;46106;51.468;5.814;2023-12-20T07:18:09;101297.63;;;5.62;100.00
60244;BME280;46106;51.468;5.814;2023-12-20T07:20:34;101301.97;;;5.66;100.00
60244;BME280;46106;51.468;5.814;2023-12-20T07:23:00;101307.41;;;5.66;100.00
60244;BME280;46106;51.468;5.814;2023-12-20T07:25:25;101304.03;;;5.61;100.00
60244;BME280;46106;51.468;5.814;2023-12-20T07:27:51;101298.63;;;5.61;100.00
60244;BME280;46106;51.468;5.814;2023-12-20T07:30:18;101303.06;;;5.62;100.00
60244;BME280;46106;51.468;5.814;2023-12-20T07:32:43;101305.00;;;5.60;100.00
60244;BME280;46106;51.468;5.814;2023-12-20T07:35:09;101301.19;;;5.64;100.00
60244;BME280;46106;51.468;5.814;2023-12-20T07:37:34;101312.59;;;5.71;100.00
60244;BME280;46106;51.468;5.814;2023-12-20T07:39:59;101303.00;;;5.64;100.00
60244;BME280;46106;51.468;5.814;2023-12-20T07:42:25;101312.91;;;5.65;100.00
60244;BME280;46106;51.468;5.814;2023-12-20T07:44:50;101308.34;;;5.65;100.00
60244;BME280;46106;51.468;5.814;2023-12-20T07:47:16;101298.31;;;5.67;100.00
60244;BME280;46106;51.468;5.814;2023-12-20T07:49:46;101300.84;;;5.70;100.00
60244;BME280;46106;51.468;5.814;2023-12-20T07:52:12;101308.84;;;5.74;100.00
60244;BME280;46106;51.468;5.814;2023-12-20T07:54:39;101307.03;;;5.74;100.00
60244;BME280;46106;51.468;5.814;2023-12-20T07:57:06;101295.09;;;5.77;100.00
60244;BME280;46106;51.468;5.814;2023-12-20T07:59:33;101300.28;;;5.81;100.00
60244;BME280;46106;51.468;5.814;2023-12-20T08:01:58;101298.53;;;5.80;100.00
60244;BME280;46106;51.468;5.814;2023-12-20T08:04:24;101294.38;;;5.73;100.00
60244;BME280;46106;51.468;5.814;2023-12-20T08:06:50;101299.66;;;5.76;100.00
60244;BME280;46106;51.468;5.814;2023-12-20T08:09:15;101291.50;;;5.76;100.00
60244;BME280;46106;51.468;5.814;2023-12-20T08:11:45;101293.16;;;5.79;100.00
60244;BME280;46106;51.468;5.814;2023-12-20T08:14:11;101293.34;;;5.76;100.00
60244;BME280;46106;51.468;5.814;2023-12-20T08:16:36;101303.72;;;5.85;100.00
60244;BME280;46106;51.468;5.814;2023-12-20T08:19:02;101317.72;;;5.77;100.00
60244;BME280;46106;51.468;5.814;2023-12-20T08:21:27;101316.91;;;5.75;100.00
60244;BME280;46106;51.468;5.814;2023-12-20T08:23:54;101324.91;;;5.78;100.00
60244;BME280;46106;51.468;5.814;2023-12-20T08:26:19;101326.44;;;5.84;100.00
60244;BME280;46106;51.468;5.814;2023-12-20T08:28:50;101328.03;;;5.88;100.00
60244;BME280;46106;51.468;5.814;2023-12-20T08:31:17;101335.38;;;5.86;100.00
60244;BME280;46106;51.468;5.814;2023-12-20T08:33:44;101332.59;;;5.87;100.00
60244;BME280;46106;51.468;5.814;2023-12-20T08:36:10;101324.28;;;5.91;100.00
60244;BME280;46106;51.468;5.814;2023-12-20T08:38:36;101326.03;;;5.92;100.00
60244;BME280;46106;51.468;5.814;2023-12-20T08:41:02;101330.50;;;5.93;100.00
60244;BME280;46106;51.468;5.814;2023-12-20T08:43:36;101325.06;;;5.93;100.00
60244;BME280;46106;51.468;5.814;2023-12-20T08:46:02;101313.19;;;5.95;100.00
60244;BME280;46106;51.468;5.814;2023-12-20T08:48:28;101325.00;;;5.94;100.00
60244;BME280;46106;51.468;5.814;2023-12-20T08:50:56;101307.75;;;5.95;100.00
60244;BME280;46106;51.468;5.814;2023-12-20T08:53:23;101312.50;;;5.90;100.00
60244;BME280;46106;51.468;5.814;2023-12-20T08:55:48;101298.69;;;5.95;100.00
60244;BME280;46106;51.468;5.814;2023-12-20T08:58:14;101289.47;;;5.99;100.00
60244;BME280;46106;51.468;5.814;2023-12-20T09:00:39;101287.91;;;5.93;100.00
60244;BME280;46106;51.468;5.814;2023-12-20T09:03:05;101285.91;;;5.97;100.00
60244;BME280;46106;51.468;5.814;2023-12-20T09:05:31;101291.19;;;6.00;100.00
60244;BME280;46106;51.468;5.814;2023-12-20T09:07:56;101288.31;;;6.03;100.00
60244;BME280;46106;51.468;5.814;2023-12-20T09:10:22;101290.31;;;5.99;100.00
60244;BME280;46106;51.468;5.814;2023-12-20T09:12:51;101287.44;;;6.02;100.00
60244;BME280;46106;51.468;5.814;2023-12-20T09:15:17;101290.16;;;6.02;100.00
60244;BME280;46106;51.468;5.814;2023-12-20T09:17:43;101299.13;;;6.04;100.00
60244;BME280;46106;51.468;5.814;2023-12-20T09:20:09;101292.19;;;5.99;100.00
60244;BME280;46106;51.468;5.814;2023-12-20T09:22:34;101297.53;;;6.00;100.00
60244;BME280;46106;51.468;5.814;2023-12-20T09:25:00;101308.41;;;6.00;100.00
60244;BME280;46106;51.468;5.814;2023-12-20T09:27:27;101311.84;;;6.04;100.00
60244;BME280;46106;51.468;5.814;2023-12-20T09:29:52;101292.88;;;6.02;100.00
60244;BME280;46106;51.468;5.814;2023-12-20T09:32:19;101299.75;;;6.10;100.00
60244;BME280;46106;51.468;5.814;2023-12-20T09:34:48;101308.06;;;6.06;100.00
60244;BME280;46106;51.468;5.814;2023-12-20T09:37:13;101301.34;;;6.14;100.00
60244;BME280;46106;51.468;5.814;2023-12-20T09:39:40;101309.66;;;6.11;100.00
60244;BME280;46106;51.468;5.814;2023-12-20T09:42:06;101311.78;;;6.21;100.00
60244;BME280;46106;51.468;5.814;2023-12-20T09:44:32;101296.47;;;6.20;100.00
60244;BME280;46106;51.468;5.814;2023-12-20T09:47:02;101295.31;;;6.24;100.00
60244;BME280;46106;51.468;5.814;2023-12-20T09:49:29;101299.09;;;6.22;100.00
60244;BME280;46106;51.468;5.814;2023-12-20T09:51:56;101286.47;;;6.21;100.00
60244;BME280;46106;51.468;5.814;2023-12-20T09:54:22;101299.56;;;6.30;100.00
60244;BME280;46106;51.468;5.814;2023-12-20T09:56:50;101292.19;;;6.32;100.00
60244;BME280;46106;51.468;5.814;2023-12-20T09:59:16;101290.44;;;6.31;100.00
60244;BME280;46106;51.468;5.814;2023-12-20T10:01:42;101301.13;;;6.34;100.00
60244;BME280;46106;51.468;5.814;2023-12-20T10:04:10;101297.22;;;6.40;100.00
60244;BME280;46106;51.468;5.814;2023-12-20T10:06:41;101292.75;;;6.39;100.00
60244;BME280;46106;51.468;5.814;2023-12-20T10:11:42;101288.63;;;6.48;100.00
60244;BME280;46106;51.468;5.814;2023-12-20T10:14:07;101289.53;;;6.48;100.00
60244;BME280;46106;51.468;5.814;2023-12-20T10:16:33;101282.78;;;6.55;100.00
60244;BME280;46106;51.468;5.814;2023-12-20T10:19:00;101287.78;;;6.63;100.00
60244;BME280;46106;51.468;5.814;2023-12-20T10:21:26;101286.03;;;6.62;100.00
60244;BME280;46106;51.468;5.814;2023-12-20T10:23:54;101268.22;;;6.56;100.00
60244;BME280;46106;51.468;5.814;2023-12-20T10:26:20;101280.59;;;6.62;100.00
60244;BME280;46106;51.468;5.814;2023-12-20T10:28:50;101273.03;;;6.67;100.00
60244;BME280;46106;51.468;5.814;2023-12-20T10:31:32;101286.31;;;6.73;100.00
60244;BME280;46106;51.468;5.814;2023-12-20T10:33:59;101278.50;;;6.83;100.00
60244;BME280;46106;51.468;5.814;2023-12-20T10:36:26;101290.63;;;6.77;100.00
60244;BME280;46106;51.468;5.814;2023-12-20T10:38:53;101291.41;;;6.79;100.00
60244;BME280;46106;51.468;5.814;2023-12-20T10:41:31;101294.31;;;6.76;100.00
60244;BME280;46106;51.468;5.814;2023-12-20T10:43:59;101295.16;;;6.77;100.00
60244;BME280;46106;51.468;5.814;2023-12-20T10:46:30;101292.28;;;6.80;100.00
60244;BME280;46106;51.468;5.814;2023-12-20T10:48:56;101281.72;;;6.74;100.00
60244;BME280;46106;51.468;5.814;2023-12-20T10:51:23;101263.25;;;6.80;100.00
60244;BME280;46106;51.468;5.814;2023-12-20T10:53:50;101254.19;;;6.80;100.00
60244;BME280;46106;51.468;5.814;2023-12-20T10:56:19;101254.88;;;6.84;100.00
60244;BME280;46106;51.468;5.814;2023-12-20T10:58:46;101242.25;;;6.83;100.00
60244;BME280;46106;51.468;5.814;2023-12-20T11:01:14;101255.78;;;6.84;100.00
60244;BME280;46106;51.468;5.814;2023-12-20T11:03:53;101255.94;;;6.81;100.00
60244;BME280;46106;51.468;5.814;2023-12-20T11:12:10;101238.75;;;6.80;100.00
60244;BME280;46106;51.468;5.814;2023-12-20T11:14:46;101246.00;;;6.80;100.00
60244;BME280;46106;51.468;5.814;2023-12-20T11:17:12;101243.38;;;6.78;100.00
60244;BME280;46106;51.468;5.814;2023-12-20T11:22:25;101244.28;;;6.79;100.00
60244;BME280;46106;51.468;5.814;2023-12-20T11:24:52;101244.38;;;6.77;100.00
60244;BME280;46106;51.468;5.814;2023-12-20T11:27:18;101246.72;;;6.84;100.00
60244;BME280;46106;51.468;5.814;2023-12-20T11:29:51;101243.13;;;6.83;100.00
60244;BME280;46106;51.468;5.814;2023-12-20T11:37:38;101232.06;;;6.86;100.00
60244;BME280;46106;51.468;5.814;2023-12-20T11:40:11;101220.13;;;6.89;100.00
60244;BME280;46106;51.468;5.814;2023-12-20T11:42:41;101219.69;;;6.80;100.00
60244;BME280;46106;51.468;5.814;2023-12-20T11:45:25;101217.84;;;6.81;100.00
60244;BME280;46106;51.468;5.814;2023-12-20T11:47:51;101217.06;;;6.79;100.00
60244;BME280;46106;51.468;5.814;2023-12-20T11:50:20;101212.91;;;6.72;100.00
60244;BME280;46106;51.468;5.814;2023-12-20T11:52:46;101209.50;;;6.68;100.00
60244;BME280;46106;51.468;5.814;2023-12-20T11:55:11;101209.59;;;6.67;100.00
60244;BME280;46106;51.468;5.814;2023-12-20T11:57:37;101214.94;;;6.68;100.00
60244;BME280;46106;51.468;5.814;2023-12-20T12:00:04;101223.81;;;6.72;100.00
60244;BME280;46106;51.468;5.814;2023-12-20T12:02:30;101222.25;;;6.68;100.00
60244;BME280;46106;51.468;5.814;2023-12-20T12:04:55;101215.72;;;6.70;100.00
60244;BME280;46106;51.468;5.814;2023-12-20T12:07:22;101217.75;;;6.67;100.00
60244;BME280;46106;51.468;5.814;2023-12-20T12:09:47;101213.63;;;6.59;100.00
60244;BME280;46106;51.468;5.814;2023-12-20T12:12:13;101216.44;;;6.58;100.00
60244;BME280;46106;51.468;5.814;2023-12-20T12:14:39;101192.22;;;6.53;100.00
60244;BME280;46106;51.468;5.814;2023-12-20T12:17:15;101203.78;;;6.57;100.00
60244;BME280;46106;51.468;5.814;2023-12-20T12:19:41;101204.75;;;6.56;100.00
60244;BME280;46106;51.468;5.814;2023-12-20T12:22:08;101190.88;;;6.60;100.00
60244;BME280;46106;51.468;5.814;2023-12-20T12:24:36;101194.59;;;6.59;100.00
60244;BME280;46106;51.468;5.814;2023-12-20T12:27:02;101190.63;;;6.65;100.00
60244;BME280;46106;51.468;5.814;2023-12-20T12:29:28;101189.84;;;6.63;100.00
60244;BME280;46106;51.468;5.814;2023-12-20T12:31:54;101187.03;;;6.65;100.00
60244;BME280;46106;51.468;5.814;2023-12-20T12:34:20;101189.84;;;6.63;100.00
60244;BME280;46106;51.468;5.814;2023-12-20T12:36:45;101183.19;;;6.53;100.00
60244;BME280;46106;51.468;5.814;2023-12-20T12:39:15;101186.78;;;6.53;100.00
60244;BME280;46106;51.468;5.814;2023-12-20T12:41:43;101173.16;;;6.53;100.00
60244;BME280;46106;51.468;5.814;2023-12-20T12:44:08;101175.56;;;6.59;100.00
60244;BME280;46106;51.468;5.814;2023-12-20T12:46:34;101181.06;;;6.58;100.00
60244;BME280;46106;51.468;5.814;2023-12-20T12:48:59;101180.19;;;6.57;100.00
60244;BME280;46106;51.468;5.814;2023-12-20T12:51:25;101164.59;;;6.61;100.00
60244;BME280;46106;51.468;5.814;2023-12-20T12:53:50;101163.75;;;6.59;100.00
60244;BME280;46106;51.468;5.814;2023-12-20T12:56:16;101161.69;;;6.64;100.00
60244;BME280;46106;51.468;5.814;2023-12-20T12:58:42;101158.84;;;6.66;100.00
60244;BME280;46106;51.468;5.814;2023-12-20T13:01:07;101158.75;;;6.67;100.00